Time;durP1;ratioP1;P1;durP2;ratioP2;P2;SDS_P1;SDS_P2;PMS_P1;PMS_P2;Temp;Humidity;BMP_temperature;BMP_pressure;BME280_temperature;BME280_humidity;BME280_pressure;Samples;Min_cycle;Max_cycle;Signal;HPM_P1;HPM_P2
2022/05/25 00:01:37;;;;;;;;;2.00;2.00;;;;;13.96;60.48;100558.41;4975378;28;45365;-70
2022/05/25 00:04:04;;;;;;;;;3.00;1.75;;;;;13.95;60.76;100555.88;4975743;28;45348;-68
2022/05/25 00:06:30;;;;;;;;;1.75;1.75;;;;;13.95;61.13;100563.81;4975328;28;45613;-69
2022/05/25 00:08:56;;;;;;;;;4.50;3.00;;;;;13.79;61.05;100532.06;4975290;28;46765;-69
2022/05/25 00:11:22;;;;;;;;;2.00;2.00;;;;;13.88;61.05;100556.22;4976177;28;45421;-67
2022/05/25 00:13:47;;;;;;;;;2.00;2.00;;;;;13.91;61.28;100555.16;4975527;28;45189;-67
2022/05/25 00:16:13;;;;;;;;;2.00;2.00;;;;;13.88;61.40;100555.34;4976081;28;45466;-68
2022/05/25 00:19:59;;;;;;;;;4.00;2.00;;;;;13.86;61.15;100541.34;4975668;28;45575;-68
2022/05/25 00:21:28;;;;;;;;;2.00;2.00;;;;;13.84;61.32;100549.38;4977125;28;45391;-68
2022/05/25 00:23:53;;;;;;;;;2.00;2.00;;;;;13.84;61.34;100552.03;4976749;28;45363;-68
2022/05/25 00:26:19;;;;;;;;;2.00;2.00;;;;;13.83;61.71;100552.97;4975150;28;45721;-69
2022/05/25 00:28:44;;;;;;;;;1.00;1.00;;;;;13.80;61.53;100549.63;4974992;28;48336;-68
2022/05/25 00:31:09;;;;;;;;;2.00;2.00;;;;;13.80;61.85;100553.13;4975344;28;45272;-70
2022/05/25 00:33:35;;;;;;;;;3.00;1.00;;;;;13.75;61.67;100543.72;4974362;28;45434;-68
2022/05/25 00:36:01;;;;;;;;;2.00;2.00;;;;;13.73;61.74;100544.66;4978288;28;45308;-68
2022/05/25 00:38:26;;;;;;;;;2.75;2.50;;;;;13.49;61.93;100512.47;4975322;28;45191;-67
2022/05/25 00:40:52;;;;;;;;;4.00;4.00;;;;;13.71;61.89;100556.25;4976110;28;45312;-67
2022/05/25 00:43:17;;;;;;;;;2.50;2.50;;;;;13.70;62.03;100557.19;4975472;28;45344;-66
2022/05/25 00:46:08;;;;;;;;;1.00;1.00;;;;;13.69;62.04;100560.75;4974885;28;45247;-67
2022/05/25 00:48:50;;;;;;;;;2.00;2.00;;;;;13.69;62.09;100576.63;4974614;28;46179;-67
2022/05/25 00:51:22;;;;;;;;;1.75;1.75;;;;;13.68;62.05;100569.63;4974058;28;45278;-67
2022/05/25 00:54:13;;;;;;;;;3.00;3.00;;;;;13.66;62.27;100576.78;4975092;28;45445;-68
2022/05/25 00:56:42;;;;;;;;;2.50;2.00;;;;;13.64;62.50;100579.53;4973882;28;45342;-68
2022/05/25 00:59:12;;;;;;;;;4.25;4.25;;;;;13.63;62.62;100571.66;4973363;28;45200;-68
2022/05/25 01:01:38;;;;;;;;;2.00;2.00;;;;;13.57;62.38;100568.41;4974445;28;45351;-70
2022/05/25 01:04:05;;;;;;;;;1.00;1.00;;;;;13.61;62.18;100579.69;4976225;28;45550;-68
2022/05/25 01:06:48;;;;;;;;;1.00;1.00;;;;;13.59;62.60;100579.75;4972797;28;45505;-68
2022/05/25 01:09:24;;;;;;;;;2.00;2.00;;;;;13.56;62.61;100582.56;4974975;28;46425;-68
2022/05/25 01:11:58;;;;;;;;;2.25;2.25;;;;;13.55;62.59;100583.50;4980644;28;45383;-67
2022/05/25 01:14:32;;;;;;;;;3.50;2.25;;;;;13.52;62.50;100585.47;4979402;28;45307;-68
2022/05/25 01:17:04;;;;;;;;;2.00;2.00;;;;;13.52;62.82;100593.38;4974644;28;45258;-68
2022/05/25 01:19:53;;;;;;;;;2.75;2.00;;;;;13.49;62.60;100597.03;4973628;28;46142;-67
2022/05/25 01:22:34;;;;;;;;;2.00;2.00;;;;;13.49;62.67;100594.38;4974179;28;45664;-68
2022/05/25 01:25:19;;;;;;;;;2.00;2.00;;;;;13.47;62.99;100592.78;4976003;28;45182;-68
2022/05/25 01:27:46;;;;;;;;;1.00;1.00;;;;;13.40;62.69;100586.91;4973594;28;45264;-67
2022/05/25 01:30:18;;;;;;;;;2.00;2.00;;;;;13.44;62.60;100599.94;4974467;28;45389;-68
2022/05/25 01:32:49;;;;;;;;;3.25;2.00;;;;;13.43;62.79;100592.06;4975311;28;45352;-69
2022/05/25 01:35:21;;;;;;;;;2.25;2.25;;;;;13.41;62.05;100593.91;4976604;28;45367;-68
2022/05/25 01:38:09;;;;;;;;;1.75;1.75;;;;;13.40;62.84;100595.69;4975795;28;45667;-67
2022/05/25 01:40:43;;;;;;;;;2.00;2.00;;;;;13.38;62.94;100605.50;4973372;28;46353;-69
2022/05/25 01:43:10;;;;;;;;;2.00;2.00;;;;;13.36;63.61;100599.44;4973358;28;45322;-68
2022/05/25 01:45:43;;;;;;;;;1.00;1.00;;;;;13.34;63.43;100608.38;4975309;28;45323;-68
2022/05/25 01:48:11;;;;;;;;;2.25;2.25;;;;;13.34;63.48;100611.00;4975717;28;45299;-69
2022/05/25 01:50:53;;;;;;;;;1.00;1.00;;;;;13.32;63.61;100612.88;4974819;28;45453;-67
2022/05/25 01:53:23;;;;;;;;;2.00;2.00;;;;;13.27;63.50;100611.31;4973464;28;45304;-67
2022/05/25 01:55:54;;;;;;;;;0.50;0.50;;;;;13.27;63.66;100608.69;4975060;28;45249;-69
2022/05/25 01:58:21;;;;;;;;;3.00;1.25;;;;;13.26;63.72;100614.06;4975987;28;45478;-69
2022/05/25 02:00:56;;;;;;;;;1.25;1.25;;;;;13.23;64.40;100609.78;4974405;28;45777;-68
2022/05/25 02:06:42;;;;;;;;;1.50;1.50;;;;;13.21;64.08;100618.69;4977855;28;45298;-69
2022/05/25 02:09:49;;;;;;;;;1.50;1.25;;;;;13.20;64.09;100616.97;4974034;28;45414;-68
2022/05/25 02:12:52;;;;;;;;;3.25;2.00;;;;;13.18;64.25;100616.19;4972756;28;46535;-68
2022/05/25 02:15:39;;;;;;;;;3.00;1.25;;;;;13.17;64.38;100612.72;4974344;28;45411;-68
2022/05/25 02:18:10;;;;;;;;;1.50;1.50;;;;;13.15;64.73;100626.00;4973500;28;45500;-69
2022/05/25 02:20:57;;;;;;;;;1.00;1.00;;;;;13.14;64.71;100626.09;4975900;28;45291;-67
2022/05/25 02:23:53;;;;;;;;;2.75;2.00;;;;;13.11;64.87;100634.16;4977523;28;47328;-67
2022/05/25 02:26:29;;;;;;;;;2.00;1.00;;;;;13.10;64.90;100635.09;4977607;28;45260;-68
2022/05/25 02:29:05;;;;;;;;;3.00;1.50;;;;;13.08;65.00;100636.94;4975413;28;45452;-67
2022/05/25 02:31:36;;;;;;;;;5.00;2.00;;;;;13.05;65.05;100624.75;4973565;28;45518;-68
2022/05/25 02:34:05;;;;;;;;;2.50;1.00;;;;;13.06;65.25;100626.44;4972946;28;46144;-68
2022/05/25 02:36:37;;;;;;;;;2.00;0.25;;;;;13.05;65.29;100626.53;4973190;28;45460;-68
2022/05/25 02:39:08;;;;;;;;;1.00;1.00;;;;;13.05;65.66;100631.81;4975300;28;45309;-67
2022/05/25 02:41:42;;;;;;;;;2.00;2.00;;;;;13.02;65.62;100632.81;4973628;28;45531;-69
2022/05/25 02:44:09;;;;;;;;;2.50;2.25;;;;;13.01;65.73;100641.66;4972407;28;46221;-68
2022/05/25 02:46:34;;;;;;;;;2.50;2.00;;;;;13.00;65.67;100650.53;4972814;28;45203;-67
2022/05/25 02:49:00;;;;;;;;;1.75;1.75;;;;;12.97;65.82;100646.28;4975782;28;45383;-67
2022/05/25 02:51:25;;;;;;;;;1.00;1.00;;;;;12.91;66.19;100636.00;4973086;28;45603;-66
2022/05/25 02:53:50;;;;;;;;;2.25;2.25;;;;;12.94;65.79;100651.69;4972410;28;46195;-68
2022/05/25 02:56:16;;;;;;;;;3.25;2.00;;;;;12.92;66.37;100656.19;4971331;28;45420;-67
2022/05/25 02:58:41;;;;;;;;;4.00;2.00;;;;;12.91;66.24;100654.50;4972450;28;45374;-69
2022/05/25 03:01:07;;;;;;;;;1.25;1.25;;;;;12.86;66.52;100648.59;4974165;28;45504;-67
2022/05/25 03:03:35;;;;;;;;;3.00;2.00;;;;;12.88;66.64;100654.63;4977580;28;45322;-67
2022/05/25 03:06:01;;;;;;;;;1.00;1.00;;;;;12.86;66.53;100656.50;4972855;28;45441;-67
2022/05/25 03:08:26;;;;;;;;;2.00;1.75;;;;;12.81;66.74;100654.06;4972618;28;45309;-67
2022/05/25 03:10:52;;;;;;;;;2.25;2.00;;;;;12.82;66.58;100655.78;4975650;28;45277;-68
2022/05/25 03:13:17;;;;;;;;;2.00;2.00;;;;;12.80;66.95;100668.19;4972189;28;45230;-67
2022/05/25 03:15:43;;;;;;;;;2.00;2.00;;;;;12.79;67.18;100663.00;4981547;28;45502;-67
2022/05/25 03:18:08;;;;;;;;;3.00;3.00;;;;;12.77;67.62;100664.88;4982735;28;45622;-68
2022/05/25 03:20:33;;;;;;;;;4.25;3.00;;;;;12.74;67.63;100679.03;4975292;28;45232;-68
2022/05/25 03:22:59;;;;;;;;;1.75;1.75;;;;;12.71;67.98;100672.13;4972334;28;46206;-68
2022/05/25 03:25:25;;;;;;;;;2.50;2.50;;;;;12.68;68.08;100681.97;4975139;28;45166;-68
2022/05/25 03:27:51;;;;;;;;;3.00;3.00;;;;;12.46;68.23;100648.69;4974003;28;45279;-66
2022/05/25 03:30:17;;;;;;;;;3.00;3.00;;;;;12.66;68.57;100691.75;4976302;28;45501;-67
2022/05/25 03:32:43;;;;;;;;;1.25;1.25;;;;;12.64;68.28;100693.63;4978414;28;45581;-68
2022/05/25 03:35:10;;;;;;;;;2.00;2.00;;;;;12.61;68.66;100702.50;4978024;28;45519;-69
2022/05/25 03:37:37;;;;;;;;;5.00;3.25;;;;;12.56;68.92;100689.56;4976888;28;45306;-68
2022/05/25 03:40:09;;;;;;;;;3.25;3.25;;;;;12.58;68.90;100689.47;4978484;28;45232;-67
2022/05/25 03:42:35;;;;;;;;;1.75;1.75;;;;;12.59;68.94;100688.53;4977782;28;45402;-68
2022/05/25 03:45:03;;;;;;;;;3.00;3.00;;;;;12.58;68.82;100697.38;4978947;28;45365;-67
2022/05/25 03:47:29;;;;;;;;;3.75;3.75;;;;;12.55;69.25;100713.34;4974069;28;45279;-70
2022/05/25 03:49:59;;;;;;;;;3.00;3.00;;;;;12.51;69.26;100714.44;4974672;28;45272;-68
2022/05/25 03:52:25;;;;;;;;;3.25;3.25;;;;;12.51;69.47;100720.56;4977717;28;46825;-67
2022/05/25 03:54:52;;;;;;;;;2.50;2.50;;;;;12.50;69.69;100728.53;4976369;28;45293;-69
2022/05/25 03:57:17;;;;;;;;;3.00;3.00;;;;;12.51;69.76;100732.91;4974735;28;45232;-69
2022/05/25 03:59:45;;;;;;;;;2.50;2.50;;;;;12.53;69.96;100738.97;4975227;28;45217;-68
2022/05/25 04:02:11;;;;;;;;;2.00;2.00;;;;;12.55;69.65;100734.47;4978484;28;46513;-68
2022/05/25 04:04:36;;;;;;;;;2.50;2.50;;;;;12.61;69.78;100733.34;4978560;28;45273;-67
2022/05/25 04:07:01;;;;;;;;;4.25;3.00;;;;;12.65;69.73;100730.47;4976779;28;45332;-70
2022/05/25 04:09:27;;;;;;;;;4.00;2.75;;;;;12.66;69.26;100728.69;4979776;28;45271;-68
2022/05/25 04:11:52;;;;;;;;;2.25;2.00;;;;;12.70;69.41;100725.00;4979243;28;45402;-68
2022/05/25 04:14:18;;;;;;;;;3.50;3.50;;;;;12.74;69.00;100736.28;4977762;28;45397;-70
2022/05/25 04:16:44;;;;;;;;;4.25;3.00;;;;;12.76;68.90;100729.97;4979860;28;45321;-67
2022/05/25 04:19:09;;;;;;;;;4.75;3.25;;;;;12.82;69.27;100734.13;4975166;28;45509;-69
2022/05/25 04:21:35;;;;;;;;;4.00;4.00;;;;;12.80;68.66;100726.28;4974717;28;45422;-67
2022/05/25 04:24:01;;;;;;;;;3.00;3.00;;;;;12.83;68.26;100733.19;4974259;28;45394;-68
2022/05/25 04:26:28;;;;;;;;;3.50;3.50;;;;;12.80;68.17;100742.09;4974625;28;45361;-67
2022/05/25 04:28:53;;;;;;;;;2.00;2.00;;;;;12.78;68.32;100738.69;4975161;28;45556;-68
2022/05/25 04:31:19;;;;;;;;;4.00;4.00;;;;;12.76;68.24;100739.69;4972972;28;46059;-67
2022/05/25 04:33:44;;;;;;;;;3.00;3.00;;;;;12.75;68.41;100743.25;4975241;28;45263;-68
2022/05/25 04:36:09;;;;;;;;;3.00;3.00;;;;;12.75;68.28;100740.63;4976995;28;45541;-68
2022/05/25 04:38:36;;;;;;;;;2.50;2.50;;;;;12.74;68.19;100744.19;4975071;28;45201;-68
2022/05/25 04:41:01;;;;;;;;;3.00;3.00;;;;;12.74;68.14;100752.94;4974151;28;46274;-67
2022/05/25 04:43:27;;;;;;;;;4.00;4.00;;;;;12.71;67.95;100753.09;4972592;28;45324;-68
2022/05/25 04:45:53;;;;;;;;;4.25;2.50;;;;;12.75;67.22;100754.66;4974126;28;45339;-67
2022/05/25 04:48:23;;;;;;;;;4.00;4.00;;;;;12.75;67.26;100753.81;4974535;28;45441;-68
2022/05/25 04:50:50;;;;;;;;;4.00;4.00;;;;;12.82;67.49;100766.66;4974772;28;45392;-68
2022/05/25 04:53:18;;;;;;;;;6.75;6.00;;;;;12.89;67.75;100766.34;4974928;28;45482;-68
2022/05/25 04:58:32;;;;;;;;;6.50;5.25;;;;;12.99;66.54;100771.16;4975650;28;45347;-68
2022/05/25 05:00:57;;;;;;;;;6.75;5.25;;;;;13.04;66.24;100776.19;4972906;28;46202;-68
2022/05/25 05:03:24;;;;;;;;;5.00;5.00;;;;;13.22;65.55;100785.03;4973998;28;45271;-68
2022/05/25 05:05:50;;;;;;;;;4.75;3.00;;;;;13.48;64.42;100785.59;4974000;28;45298;-69
2022/05/25 05:08:17;;;;;;;;;3.50;2.50;;;;;13.76;64.02;100786.00;4974294;28;45516;-67
2022/05/25 05:10:42;;;;;;;;;4.00;4.00;;;;;14.03;63.36;100781.94;4974028;28;45408;-69
2022/05/25 05:13:08;;;;;;;;;4.50;4.50;;;;;14.31;62.56;100787.59;4974856;28;45417;-68
2022/05/25 05:15:35;;;;;;;;;3.00;3.00;;;;;14.56;61.91;100788.94;4976257;28;45314;-68
2022/05/25 05:18:02;;;;;;;;;5.00;4.00;;;;;14.78;61.10;100786.03;4977435;28;45545;-69
2022/05/25 05:20:28;;;;;;;;;6.00;4.50;;;;;15.00;60.93;100785.72;4975928;28;46884;-67
2022/05/25 05:22:54;;;;;;;;;4.00;4.00;;;;;15.22;60.08;100792.44;4975152;28;45413;-66
2022/05/25 05:25:20;;;;;;;;;2.50;2.50;;;;;15.41;59.87;100796.69;4973657;28;45217;-67
2022/05/25 05:27:45;;;;;;;;;3.50;3.50;;;;;15.60;59.46;100802.66;4974238;28;45292;-67
2022/05/25 05:30:15;;;;;;;;;6.00;4.75;;;;;15.77;59.03;100798.16;4975007;28;45302;-67
2022/05/25 05:32:41;;;;;;;;;4.00;4.00;;;;;15.78;58.67;100799.84;4974985;28;45560;-67
2022/05/25 05:35:06;;;;;;;;;3.75;3.75;;;;;15.75;58.80;100802.69;4974970;28;45436;-68
2022/05/25 05:37:43;;;;;;;;;6.25;5.00;;;;;15.60;59.33;100797.34;4976062;28;45354;-68
2022/05/25 05:40:11;;;;;;;;;3.50;3.50;;;;;15.45;59.28;100800.88;4977658;28;47458;-68
2022/05/25 05:42:39;;;;;;;;;4.00;3.00;;;;;15.32;59.20;100790.13;4972335;28;45514;-69
2022/05/25 05:45:09;;;;;;;;;3.50;3.50;;;;;15.12;59.57;100792.09;4973746;28;45394;-68
2022/05/25 05:47:51;;;;;;;;;4.00;2.25;;;;;14.98;59.70;100792.00;4975766;28;45568;-69
2022/05/25 05:50:23;;;;;;;;;8.50;6.75;;;;;14.86;60.07;100785.63;4973386;28;46197;-68
2022/05/25 05:52:50;;;;;;;;;4.25;2.75;;;;;14.73;59.94;100777.47;4973830;28;45420;-68
2022/05/25 05:55:16;;;;;;;;;2.75;2.25;;;;;14.71;60.02;100788.13;4973833;28;45342;-68
2022/05/25 05:57:42;;;;;;;;;2.00;2.00;;;;;14.61;60.14;100784.25;4973646;28;45439;-68
2022/05/25 06:00:09;;;;;;;;;2.25;2.25;;;;;14.52;60.50;100790.03;4974429;28;45396;-68
2022/05/25 06:02:35;;;;;;;;;2.00;2.00;;;;;14.41;60.51;100796.75;4974020;28;45355;-68
2022/05/25 06:05:00;;;;;;;;;3.00;3.00;;;;;14.30;61.01;100796.47;4973568;28;45192;-67
2022/05/25 06:07:25;;;;;;;;;2.50;2.50;;;;;14.28;60.59;100796.53;4973649;28;45333;-69
2022/05/25 06:09:51;;;;;;;;;3.25;2.00;;;;;14.26;61.10;100808.16;4973390;28;45914;-69
2022/05/25 06:12:16;;;;;;;;;3.00;2.00;;;;;14.18;60.83;100803.25;4973246;28;45350;-69
2022/05/25 06:14:42;;;;;;;;;4.00;4.00;;;;;14.22;61.15;100811.91;4976147;28;45401;-68
2022/05/25 06:19:52;;;;;;;;;3.00;3.00;;;;;14.20;60.74;100827.00;4973288;28;45460;-69
2022/05/25 06:22:18;;;;;;;;;5.00;4.25;;;;;14.18;61.47;100821.75;4973638;28;45382;-67
2022/05/25 06:24:49;;;;;;;;;3.00;3.00;;;;;14.19;61.12;100830.56;4973843;28;45333;-68
2022/05/25 06:27:16;;;;;;;;;4.00;3.00;;;;;14.18;61.02;100837.63;4973432;28;45337;-69
2022/05/25 06:29:44;;;;;;;;;2.50;2.50;;;;;14.18;61.05;100837.63;4975520;28;46203;-69
2022/05/25 06:32:11;;;;;;;;;3.50;3.50;;;;;14.24;60.66;100844.41;4980160;28;45329;-69
2022/05/25 06:34:38;;;;;;;;;3.75;3.75;;;;;14.30;60.69;100846.75;4979581;28;45166;-70
2022/05/25 06:37:04;;;;;;;;;3.00;3.00;;;;;14.37;60.25;100849.94;4974028;28;45237;-67
2022/05/25 06:39:36;;;;;;;;;3.00;3.00;;;;;14.38;60.11;100847.19;4973138;28;46534;-68
2022/05/25 06:42:01;;;;;;;;;2.50;2.50;;;;;14.41;60.13;100841.75;4974096;28;45347;-69
2022/05/25 06:44:27;;;;;;;;;6.25;5.00;;;;;14.50;60.07;100855.44;4977590;28;45257;-69
2022/05/25 06:46:52;;;;;;;;;4.75;3.00;;;;;14.57;59.88;100849.75;4974662;28;45159;-68
2022/05/25 06:49:18;;;;;;;;;4.00;3.25;;;;;14.68;59.55;100865.06;4972686;28;47457;-70
2022/05/25 06:51:44;;;;;;;;;6.00;6.00;;;;;14.60;59.73;100835.47;4975223;28;45273;-71
2022/05/25 06:54:12;;;;;;;;;3.75;3.75;;;;;14.86;59.00;100871.19;4988075;28;45349;-69
2022/05/25 06:56:38;;;;;;;;;7.00;6.00;;;;;14.95;58.75;100869.88;4987867;27;45478;-69
2022/05/25 06:59:03;;;;;;;;;4.50;4.50;;;;;15.03;58.45;100866.78;4973318;28;45477;-68
2022/05/25 07:01:29;;;;;;;;;4.75;4.75;;;;;15.08;58.58;100877.97;4975405;28;45321;-68
2022/05/25 07:03:54;;;;;;;;;3.00;3.00;;;;;15.09;57.50;100873.56;4975801;28;45315;-67
2022/05/25 07:06:21;;;;;;;;;6.25;4.00;;;;;15.19;57.67;100878.25;4974680;28;45566;-67
2022/05/25 07:08:47;;;;;;;;;5.25;4.00;;;;;15.28;57.56;100874.25;4975676;28;45346;-68
2022/05/25 07:11:13;;;;;;;;;2.25;2.25;;;;;15.25;57.04;100849.69;4975671;28;45317;-67
2022/05/25 07:13:39;;;;;;;;;4.00;4.00;;;;;15.45;56.64;100867.16;4977540;28;45296;-67
2022/05/25 07:16:08;;;;;;;;;5.00;3.00;;;;;15.50;56.54;100866.91;4975677;28;45613;-68
2022/05/25 07:18:34;;;;;;;;;3.75;3.75;;;;;15.54;56.07;100871.09;4974876;28;45429;-67
2022/05/25 07:21:08;;;;;;;;;3.00;3.00;;;;;15.42;55.51;100856.72;4975055;28;45325;-69
2022/05/25 07:23:35;;;;;;;;;2.00;2.00;;;;;15.65;55.66;100889.91;4975586;28;45472;-70
2022/05/25 07:26:01;;;;;;;;;3.00;2.75;;;;;15.62;54.99;100882.13;4981448;28;45325;-68
2022/05/25 07:28:26;;;;;;;;;3.00;3.00;;;;;15.66;55.24;100898.69;4976183;28;46094;-67
2022/05/25 07:30:58;;;;;;;;;5.50;2.50;;;;;15.68;55.38;100899.47;4978575;28;45306;-70
2022/05/25 07:33:24;;;;;;;;;3.25;2.50;;;;;15.74;55.09;100897.31;4977829;28;45761;-69
2022/05/25 07:35:49;;;;;;;;;5.00;2.00;;;;;15.83;54.92;100903.03;4976250;28;45824;-68
2022/05/25 07:38:15;;;;;;;;;2.75;2.75;;;;;15.94;54.64;100910.44;4978554;28;45960;-69
2022/05/25 07:40:42;;;;;;;;;3.00;1.00;;;;;15.98;54.68;100912.81;4976278;28;45367;-67
2022/05/25 07:43:18;;;;;;;;;4.25;4.00;;;;;16.11;54.40;100907.66;4974010;28;45454;-69
2022/05/25 07:45:47;;;;;;;;;1.00;1.00;;;;;16.25;53.40;100916.59;4976313;28;45312;-69
2022/05/25 07:48:12;;;;;;;;;1.25;1.25;;;;;16.31;53.45;100913.59;4977575;28;46200;-68
2022/05/25 07:50:38;;;;;;;;;2.75;2.00;;;;;16.40;53.66;100905.06;4974783;28;45378;-69
2022/05/25 07:53:55;;;;;;;;;1.00;1.00;;;;;16.44;53.03;100909.25;4973410;28;45393;-68
2022/05/25 07:55:51;;;;;;;;;2.50;2.50;;;;;16.54;53.23;100909.56;4974803;28;45358;-67
2022/05/25 07:58:16;;;;;;;;;3.00;3.00;;;;;16.56;53.22;100904.16;4975862;28;46036;-68
2022/05/25 08:00:41;;;;;;;;;2.75;2.75;;;;;16.62;53.29;100906.44;4974520;28;45326;-67
2022/05/25 08:05:54;;;;;;;;;2.75;1.75;;;;;16.80;52.78;100925.72;4974714;28;45464;-67
2022/05/25 08:08:25;;;;;;;;;3.50;1.25;;;;;16.82;52.32;100922.97;4977509;28;46349;-69
2022/05/25 08:10:54;;;;;;;;;5.00;5.00;;;;;16.72;52.10;100920.88;4976837;28;45414;-68
2022/05/25 08:13:21;;;;;;;;;3.00;1.00;;;;;16.79;52.09;100927.50;4975277;28;45365;-68
2022/05/25 08:15:47;;;;;;;;;1.25;0.75;;;;;16.90;51.78;100918.03;4974513;28;45510;-68
2022/05/25 08:18:15;;;;;;;;;4.25;4.25;;;;;17.06;51.94;100931.25;4973942;28;46379;-67
2022/05/25 08:20:40;;;;;;;;;3.75;2.00;;;;;17.21;50.80;100934.78;4974200;28;45350;-68
2022/05/25 08:23:07;;;;;;;;;2.75;2.50;;;;;17.17;50.35;100930.59;4974019;28;45330;-68
2022/05/25 08:25:34;;;;;;;;;2.75;2.75;;;;;17.05;50.46;100935.75;4974517;28;45532;-69
2022/05/25 08:27:59;;;;;;;;;2.75;1.00;;;;;17.02;50.20;100930.63;4974897;28;46354;-67
2022/05/25 08:30:25;;;;;;;;;1.50;0.00;;;;;17.04;50.22;100930.50;4974230;28;45344;-67
2022/05/25 08:32:51;;;;;;;;;4.00;4.00;;;;;17.01;49.98;100933.34;4975637;28;45383;-67
2022/05/25 08:35:17;;;;;;;;;1.00;1.00;;;;;17.03;49.95;100942.09;4975104;28;45602;-68
2022/05/25 08:37:43;;;;;;;;;0.50;0.50;;;;;17.08;49.18;100935.53;4974744;28;45475;-68
2022/05/25 08:40:13;;;;;;;;;3.00;1.00;;;;;17.13;49.18;100931.75;4973662;28;45352;-67
2022/05/25 08:43:11;;;;;;;;;2.50;2.50;;;;;17.27;49.53;100920.22;4974302;28;45468;-67
2022/05/25 08:45:46;;;;;;;;;2.75;1.00;;;;;17.40;49.42;100928.28;4977173;28;45394;-67
2022/05/25 08:48:15;;;;;;;;;4.00;4.00;;;;;17.57;49.58;100925.41;4973028;28;47378;-67
2022/05/25 08:50:53;;;;;;;;;3.00;3.00;;;;;17.80;48.78;100931.03;4975394;28;45429;-67
2022/05/25 08:53:22;;;;;;;;;3.00;3.00;;;;;17.91;48.25;100925.03;4974927;28;45301;-67
2022/05/25 08:56:06;;;;;;;;;3.75;2.50;;;;;18.00;47.44;100931.53;4973927;28;45446;-68
2022/05/25 08:58:51;;;;;;;;;3.00;2.00;;;;;18.06;48.00;100933.84;4973920;28;46012;-68
2022/05/25 09:01:28;;;;;;;;;0.75;0.75;;;;;18.12;47.23;100935.22;4974219;28;45371;-69
2022/05/25 09:03:57;;;;;;;;;2.00;1.00;;;;;18.12;46.46;100936.09;4975220;28;45467;-68
2022/05/25 09:06:41;;;;;;;;;4.00;2.25;;;;;18.13;46.20;100943.13;4978462;28;45449;-68
2022/05/25 09:09:33;;;;;;;;;5.00;3.75;;;;;18.11;46.21;100945.03;4977207;28;45301;-67
2022/05/25 09:12:06;;;;;;;;;2.00;1.00;;;;;18.17;45.43;100955.28;4985634;28;45394;-67
2022/05/25 09:14:46;;;;;;;;;0.00;0.00;;;;;18.14;45.49;100946.63;4974901;28;45398;-70
2022/05/25 09:17:19;;;;;;;;;1.00;1.00;;;;;18.20;45.21;100944.44;4974954;28;45331;-67
2022/05/25 09:19:47;;;;;;;;;3.00;3.00;;;;;18.30;45.64;100946.47;4973913;28;45386;-67
2022/05/25 09:22:19;;;;;;;;;1.00;1.00;;;;;18.42;44.14;100942.13;4973447;28;45262;-68
2022/05/25 09:24:47;;;;;;;;;0.25;0.25;;;;;18.52;43.74;100937.88;4974025;28;45353;-69
2022/05/25 09:27:13;;;;;;;;;2.50;1.50;;;;;18.61;43.60;100939.06;4973707;28;45596;-67
2022/05/25 09:29:40;;;;;;;;;1.00;1.00;;;;;18.70;43.00;100935.75;4973286;28;45242;-68
2022/05/25 09:32:32;;;;;;;;;1.00;1.00;;;;;18.80;42.91;100931.50;4973399;28;45377;-68
2022/05/25 09:35:06;;;;;;;;;1.00;1.00;;;;;18.80;41.46;100933.31;4997159;28;45549;-68
2022/05/25 09:37:34;;;;;;;;;0.00;0.00;;;;;18.74;42.02;100939.09;4974316;28;45323;-69
2022/05/25 09:40:10;;;;;;;;;3.00;1.00;;;;;18.69;42.15;100932.25;4974163;28;45362;-68
2022/05/25 09:42:37;;;;;;;;;1.25;1.25;;;;;18.69;42.03;100939.38;4974887;28;45264;-69
2022/05/25 09:45:17;;;;;;;;;2.00;2.00;;;;;18.75;42.15;100938.97;4974640;28;45483;-69
2022/05/25 09:47:45;;;;;;;;;2.00;2.00;;;;;18.83;41.98;100944.59;4974317;28;45291;-70
2022/05/25 09:50:27;;;;;;;;;4.25;2.75;;;;;18.91;41.29;100943.22;4989564;28;46031;-68
2022/05/25 09:52:54;;;;;;;;;4.25;1.75;;;;;18.99;40.84;100938.22;4974095;28;45276;-69
2022/05/25 09:55:24;;;;;;;;;2.50;1.00;;;;;18.99;40.01;100938.22;4974733;28;45280;-68
2022/05/25 09:58:00;;;;;;;;;0.75;0.50;;;;;19.01;40.44;100943.47;4976372;28;45327;-70
2022/05/25 10:00:50;;;;;;;;;2.50;0.50;;;;;19.06;40.55;100952.84;4973309;28;47009;-68
2022/05/25 10:03:32;;;;;;;;;0.25;0.25;;;;;19.17;41.09;100951.25;4975575;28;45260;-68
2022/05/25 10:06:00;;;;;;;;;1.00;1.00;;;;;19.23;40.31;100957.00;4975576;28;45337;-66
2022/05/25 10:08:37;;;;;;;;;4.50;1.25;;;;;19.25;40.24;100951.56;4974899;28;45569;-67
2022/05/25 10:11:28;;;;;;;;;2.00;2.00;;;;;19.29;40.15;100944.19;4977671;28;46138;-69
2022/05/25 10:14:14;;;;;;;;;0.50;0.50;;;;;19.33;40.14;100951.00;4975330;28;45302;-70
2022/05/25 10:16:43;;;;;;;;;1.00;1.00;;;;;19.36;40.32;100946.31;4976770;28;45279;-68
2022/05/25 10:19:16;;;;;;;;;2.25;2.25;;;;;19.44;40.52;100947.56;4974336;28;45468;-68
2022/05/25 10:21:47;;;;;;;;;1.50;1.50;;;;;19.61;39.90;100959.69;4975133;28;46186;-67
2022/05/25 10:24:21;;;;;;;;;3.00;3.00;;;;;19.69;39.53;100960.00;4973235;28;45308;-68
2022/05/25 10:26:54;;;;;;;;;1.50;1.50;;;;;19.76;39.64;100963.06;4977035;28;44856;-68
2022/05/25 10:37:56;;;;;;;;;3.00;2.00;;;;;20.19;38.99;100957.25;4973532;28;45318;-67
2022/05/25 10:40:23;;;;;;;;;5.50;2.50;;;;;20.19;38.78;100959.94;4974461;28;45420;-68
2022/05/25 10:42:55;;;;;;;;;1.50;1.50;;;;;20.12;38.56;100955.97;4973580;28;45253;-68
2022/05/25 10:45:28;;;;;;;;;1.00;1.00;;;;;20.01;38.88;100948.78;4971770;28;45406;-69
2022/05/25 10:48:07;;;;;;;;;1.00;1.00;;;;;20.09;39.49;100958.88;4972608;28;45375;-68
2022/05/25 10:50:48;;;;;;;;;6.50;5.50;;;;;20.19;39.26;100948.38;4973624;28;45508;-67
2022/05/25 10:53:32;;;;;;;;;3.25;3.00;;;;;20.29;38.67;100947.59;4975004;28;46245;-68
2022/05/25 10:56:19;;;;;;;;;0.25;0.25;;;;;20.34;38.92;100944.53;4973593;28;45410;-69
2022/05/25 10:59:09;;;;;;;;;2.50;2.50;;;;;20.42;39.34;100944.81;4975943;28;45458;-68
2022/05/25 11:01:54;;;;;;;;;2.00;2.00;;;;;20.37;38.64;100941.63;4974533;28;45204;-69
2022/05/25 11:04:32;;;;;;;;;1.25;1.25;;;;;20.34;37.95;100943.72;4975525;28;45227;-69
2022/05/25 11:07:18;;;;;;;;;2.00;2.00;;;;;20.38;37.95;100953.19;4973282;28;45349;-68
2022/05/25 11:10:12;;;;;;;;;3.50;3.50;;;;;20.44;37.92;100950.88;4973548;28;45333;-69
2022/05/25 11:12:47;;;;;;;;;1.00;1.00;;;;;20.58;37.72;100959.66;4987438;28;45420;-69
2022/05/25 11:15:21;;;;;;;;;0.00;0.00;;;;;20.68;36.24;100958.00;4971565;28;47648;-67
2022/05/25 11:18:10;;;;;;;;;1.25;0.00;;;;;20.66;35.67;100956.41;4973319;28;45475;-68
2022/05/25 11:20:48;;;;;;;;;0.00;0.00;;;;;20.60;36.88;100952.38;4973403;28;45460;-67
2022/05/25 11:23:39;;;;;;;;;0.25;0.25;;;;;20.54;36.94;100948.38;4971850;28;45315;-68
2022/05/25 11:26:31;;;;;;;;;2.00;2.00;;;;;20.63;37.20;100953.97;4972740;28;45799;-69
2022/05/25 11:29:38;;;;;;;;;4.75;4.00;;;;;20.78;37.60;100952.81;4975647;28;45224;-68
2022/05/25 11:32:19;;;;;;;;;3.00;1.50;;;;;20.86;37.06;100949.56;4974215;28;45327;-69
2022/05/25 11:35:11;;;;;;;;;0.00;0.00;;;;;20.90;36.80;100944.81;4971672;28;45351;-71
2022/05/25 11:37:48;;;;;;;;;0.25;0.25;;;;;20.75;36.92;100947.69;4971261;28;45346;-68
2022/05/25 11:40:25;;;;;;;;;1.00;1.00;;;;;20.86;37.08;100945.06;4975305;28;45400;-69
2022/05/25 11:43:28;;;;;;;;;0.25;0.25;;;;;21.10;36.92;100954.78;4973078;28;45168;-68
2022/05/25 11:46:06;;;;;;;;;0.00;0.00;;;;;21.20;36.28;100948.69;4972672;28;45296;-69
2022/05/25 11:48:56;;;;;;;;;0.00;0.00;;;;;21.17;35.23;100949.81;4975065;28;45349;-68
2022/05/25 11:51:34;;;;;;;;;1.00;0.00;;;;;21.23;35.29;100945.81;4974593;28;45340;-67
2022/05/25 11:54:19;;;;;;;;;0.00;0.00;;;;;21.18;36.03;100943.50;4974514;28;45360;-69
2022/05/25 11:56:47;;;;;;;;;0.25;0.25;;;;;21.17;36.37;100955.16;4974926;28;45364;-67
2022/05/25 11:59:37;;;;;;;;;1.50;1.50;;;;;21.11;36.26;100943.13;4974355;28;45347;-69
2022/05/25 12:02:40;;;;;;;;;0.00;0.00;;;;;21.09;36.21;100946.91;4975498;28;45323;-67
2022/05/25 12:05:29;;;;;;;;;0.00;0.00;;;;;21.19;35.94;100949.69;4973789;28;45432;-67